KATW

Outagamie County Regional Airport

Airport
ICAO code
KATW
Summary
ICAO Region
NAM
ICAO Territory
Location

Appleton, Wisconsin,

Coordinates
44° 15' 38" N , 88° 30' 40" W
KCC
Airport CFIT
Altimeter Temperature Error Correction
Airport WX
Cumulonimbus
Metar
Observation
KATW 010835Z AUTO 29008KT 10SM CLR M10/M13 A3025 RMK AO2
Station
Appleton / Outagamie
Date/Time
2022-12-01 08:35:00
Wind direction
290°
Wind speed
08 kts
Lowest cloud amount
n/a
Temperature
-10°C
Dew point
-13°C
Humidity
78%
Weather condition
n/a

Description

Outagamie County Regional Airport is a public use airport located just west of Appleton in Outagamie County, Wisconsin.

Climatology

Humid continental climate (Köppen climate classification Dfa) - characterized by four seasons: cold, windy, snowy winters, mild springs, hot, humid summers, and crisp and relatively short autumns. Precipitation reaches its lowest in January and February and peaks in summer and latter half of spring.

Airport map

Aerial View

SKYbrary Partners:

Safety knowledge contributed by: